Weather reports worldwide

Advertisment
Pristina, Kosovo (13481): temperature & dewpoint: 20.05.2019 20:00:00 - 26.05.2019 20:00:00 (CEST)Pristina, Kosovo (13481): wind speed: 20.05.2019 20:00:00 - 26.05.2019 20:00:00 (CEST)Pristina, Kosovo (13481): wind direction: 20.05.2019 20:00:00 - 26.05.2019 20:00:00 (CEST)Pristina, Kosovo (13481): visibility: 20.05.2019 20:00:00 - 26.05.2019 20:00:00 (CEST)
Date & Time tt [°C] td [°C] ff [km/h] ff [kn] dd vv [km]
26.05.2019 20:00:00 19,0 10,0 9 5 NNW 10
26.05.2019 19:00:00 20,0 9,0 4 2 - 10
26.05.2019 18:00:00 22,0 10,0 9 5 W 10
26.05.2019 17:00:00 - - - - - -
26.05.2019 16:00:00 - - - - - -
26.05.2019 15:00:00 23,0 11,0 9 5 SSW 10
26.05.2019 14:00:00 22,0 10,0 9 5 SSE 10
26.05.2019 13:00:00 22,0 10,0 9 5 S 10
26.05.2019 12:00:00 21,0 10,0 4 2 - 10
26.05.2019 11:00:00 19,0 10,0 5 3 - 10
26.05.2019 10:00:00 18,0 9,0 2 1 - 10
26.05.2019 09:00:00 16,0 10,0 2 1 - 10
26.05.2019 08:00:00 14,0 10,0 2 1 - 7
26.05.2019 07:00:00 12,0 8,0 2 1 - 5
26.05.2019 06:00:00 10,0 7,0 0 0 N 6
26.05.2019 05:00:00 9,0 6,0 2 1 - 10
26.05.2019 04:00:00 10,0 7,0 4 2 - 10
26.05.2019 03:00:00 10,0 7,0 2 1 - 10
26.05.2019 02:00:00 11,0 8,0 2 1 - 10
26.05.2019 01:00:00 11,0 7,0 2 1 - 10
26.05.2019 00:00:00 13,0 8,0 5 3 - 10
25.05.2019 23:00:00 12,0 8,0 9 5 ESE 10
25.05.2019 22:00:00 15,0 9,0 2 1 - 10
25.05.2019 21:00:00 18,0 9,0 9 5 WNW 10
25.05.2019 20:00:00 19,0 10,0 8 4 N 10
25.05.2019 19:00:00 21,0 9,0 15 8 W 10
25.05.2019 18:00:00 22,0 8,0 16 9 WSW 10
25.05.2019 17:00:00 23,0 5,0 15 8 W 10
25.05.2019 16:00:00 23,0 6,0 9 5 WNW 10
25.05.2019 15:00:00 22,0 7,0 9 5 WNW 10
25.05.2019 14:00:00 22,0 6,0 11 6 WNW 10
25.05.2019 13:00:00 21,0 7,0 13 7 WNW 10
25.05.2019 12:00:00 20,0 8,0 9 5 NW 10
25.05.2019 11:00:00 18,0 9,0 5 3 - 10
25.05.2019 10:00:00 18,0 9,0 13 7 WNW 10
25.05.2019 09:00:00 16,0 10,0 8 4 N 10
25.05.2019 08:00:00 14,0 11,0 5 3 - 8
25.05.2019 07:00:00 12,0 9,0 0 0 N 5
25.05.2019 06:00:00 11,0 8,0 0 0 N 3,0
25.05.2019 05:00:00 11,0 8,0 4 2 - 8
25.05.2019 04:00:00 10,0 8,0 0 0 N 4,0
25.05.2019 03:00:00 10,0 8,0 0 0 N 6
25.05.2019 02:00:00 10,0 8,0 2 1 - 7
25.05.2019 01:00:00 11,0 8,0 5 3 - 10
25.05.2019 00:00:00 13,0 10,0 5 3 - 10
24.05.2019 23:00:00 13,0 10,0 8 4 NW 10
24.05.2019 22:00:00 14,0 10,0 8 4 WNW 10
24.05.2019 21:00:00 13,0 10,0 9 5 NW 10
24.05.2019 20:00:00 14,0 10,0 9 5 W 10
24.05.2019 19:00:00 16,0 10,0 2 1 - 10
24.05.2019 18:00:00 17,0 9,0 5 3 - 10
24.05.2019 17:00:00 17,0 10,0 8 4 N 10
24.05.2019 16:00:00 18,0 9,0 11 6 NNE 10
24.05.2019 15:00:00 19,0 7,0 5 3 - 10
24.05.2019 14:00:00 19,0 8,0 4 2 - 10
24.05.2019 13:00:00 17,0 7,0 8 4 N 10
24.05.2019 12:00:00 17,0 7,0 9 5 NW 10
24.05.2019 11:00:00 17,0 7,0 11 6 NW 10
24.05.2019 10:00:00 16,0 8,0 5 3 - 10
24.05.2019 09:00:00 15,0 8,0 8 4 N 10
24.05.2019 08:00:00 14,0 9,0 4 2 - 10
24.05.2019 07:00:00 13,0 8,0 4 2 - 10
24.05.2019 06:00:00 12,0 8,0 0 0 N 10
24.05.2019 05:00:00 12,0 8,0 0 0 N 10
24.05.2019 04:00:00 11,0 8,0 5 3 - 10
24.05.2019 03:00:00 12,0 8,0 0 0 N 10
24.05.2019 02:00:00 11,0 7,0 5 3 - 10
24.05.2019 01:00:00 12,0 8,0 5 3 - 10
24.05.2019 00:00:00 13,0 8,0 11 6 NNW 10
23.05.2019 23:00:00 14,0 9,0 13 7 NNW 10
23.05.2019 22:00:00 15,0 9,0 9 5 NNW 10
23.05.2019 21:00:00 15,0 9,0 15 8 N 10
23.05.2019 20:00:00 16,0 7,0 11 6 NNW 10
23.05.2019 19:00:00 17,0 7,0 18 10 N 10
23.05.2019 18:00:00 19,0 7,0 18 10 N 10
23.05.2019 17:00:00 20,0 8,0 21 11 N 10
23.05.2019 16:00:00 20,0 8,0 22 12 N 10
23.05.2019 15:00:00 20,0 9,0 28 15 N 10
23.05.2019 14:00:00 20,0 9,0 22 12 NNE 10
23.05.2019 13:00:00 19,0 9,0 22 12 NNE 10
23.05.2019 12:00:00 19,0 9,0 21 11 N 10
23.05.2019 11:00:00 18,0 9,0 15 8 NNE 10
23.05.2019 10:00:00 17,0 9,0 13 7 NNE 10
23.05.2019 09:00:00 15,0 8,0 8 4 N 10
23.05.2019 08:00:00 14,0 9,0 11 6 NNE 10
23.05.2019 07:00:00 13,0 8,0 11 6 N 10
23.05.2019 06:00:00 10,0 6,0 5 3 - 7
23.05.2019 05:00:00 10,0 5,0 4 2 - 10
23.05.2019 04:00:00 11,0 7,0 8 4 NNE 10
23.05.2019 03:00:00 12,0 7,0 8 4 NNE 10
23.05.2019 02:00:00 15,0 5,0 8 4 - 10
23.05.2019 01:00:00 15,0 5,0 4 2 - 10
23.05.2019 00:00:00 14,0 5,0 5 3 - 10
22.05.2019 23:00:00 15,0 6,0 5 3 - 10
22.05.2019 22:00:00 15,0 7,0 4 2 - 10
22.05.2019 21:00:00 17,0 7,0 9 5 NE 10
22.05.2019 20:00:00 18,0 7,0 18 10 WSW 10
22.05.2019 19:00:00 20,0 7,0 16 9 SW 10
22.05.2019 18:00:00 21,0 7,0 21 11 W 10
22.05.2019 17:00:00 22,0 5,0 16 9 SW 10
22.05.2019 16:00:00 22,0 4,0 24 13 WSW 10
22.05.2019 15:00:00 23,0 6,0 21 11 SW 10
22.05.2019 14:00:00 23,0 7,0 18 10 WSW 10
22.05.2019 13:00:00 21,0 6,0 13 7 W 10
22.05.2019 12:00:00 21,0 7,0 16 9 SW 10
22.05.2019 11:00:00 20,0 7,0 16 9 SW 10
22.05.2019 10:00:00 17,0 7,0 15 8 WSW 10
22.05.2019 09:00:00 17,0 8,0 5 3 - 10
22.05.2019 08:00:00 15,0 8,0 8 4 ESE 10
22.05.2019 07:00:00 12,0 7,0 5 3 - 10
22.05.2019 06:00:00 10,0 6,0 4 2 - 10
22.05.2019 05:00:00 10,0 6,0 9 5 N 10
22.05.2019 04:00:00 11,0 6,0 4 2 - 10
22.05.2019 03:00:00 12,0 7,0 16 9 W 10
22.05.2019 02:00:00 11,0 5,0 5 3 - 10
22.05.2019 01:00:00 13,0 5,0 2 1 - 10
22.05.2019 00:00:00 14,0 5,0 15 8 SSW 10
21.05.2019 23:00:00 15,0 4,0 15 8 SW 10
21.05.2019 22:00:00 14,0 5,0 21 11 SW 10
21.05.2019 21:00:00 14,0 5,0 13 7 SW 10
21.05.2019 20:00:00 16,0 5,0 18 10 SW 10
21.05.2019 19:00:00 17,0 5,0 16 9 SW 10
21.05.2019 18:00:00 19,0 3,0 28 15 WSW 10
21.05.2019 17:00:00 19,0 5,0 26 14 WSW 10
21.05.2019 16:00:00 19,0 5,0 31 17 SW 10
21.05.2019 15:00:00 19,0 5,0 31 17 SW 10
21.05.2019 14:00:00 18,0 5,0 31 17 SSW 10
21.05.2019 13:00:00 17,0 5,0 31 17 SW 10
21.05.2019 12:00:00 15,0 6,0 24 13 SW 10
21.05.2019 11:00:00 16,0 6,0 15 8 SSW 10
21.05.2019 10:00:00 15,0 6,0 18 10 SSW 10
21.05.2019 09:00:00 12,0 7,0 9 5 SSW 10
21.05.2019 08:00:00 12,0 6,0 2 1 - 10
21.05.2019 07:00:00 12,0 5,0 13 7 WSW 10
21.05.2019 06:00:00 9,0 5,0 11 6 S 10
21.05.2019 05:00:00 8,0 3,0 4 2 - 10
21.05.2019 04:00:00 10,0 4,0 11 6 S 10
21.05.2019 03:00:00 8,0 4,0 4 2 - 10
21.05.2019 02:00:00 11,0 5,0 5 3 - 10
21.05.2019 01:00:00 10,0 7,0 8 4 ENE 10
21.05.2019 00:00:00 11,0 7,0 8 4 SSW 10
20.05.2019 23:00:00 12,0 7,0 21 11 WSW 10
20.05.2019 22:00:00 12,0 6,0 15 8 SSW 10
20.05.2019 21:00:00 13,0 5,0 21 11 SW 10
20.05.2019 20:00:00 14,0 5,0 26 14 WSW 10

tt = temperature
td = dewpoint
ff = wind speed
dd = wind direction
vv = visibility

Next stations